createdAt,value
2023-05-01T00:01:00.861Z,8.60
2023-05-01T00:03:28.241Z,8.60
2023-05-01T00:06:02.097Z,8.60
2023-05-01T00:08:29.466Z,8.60
2023-05-01T00:10:56.557Z,8.60
2023-05-01T00:13:24.616Z,8.70
2023-05-01T00:15:52.766Z,8.70
2023-05-01T00:18:20.163Z,8.70
2023-05-01T00:20:50.278Z,8.70
2023-05-01T00:23:17.240Z,8.70
2023-05-01T00:25:44.634Z,8.70
2023-05-01T00:28:11.614Z,8.70
2023-05-01T00:30:39.536Z,8.70
2023-05-01T00:33:08.025Z,8.70
2023-05-01T00:35:35.779Z,8.60
2023-05-01T00:38:04.370Z,8.60
2023-05-01T00:40:33.830Z,8.60
2023-05-01T00:43:00.827Z,8.60
2023-05-01T00:45:27.979Z,8.60
2023-05-01T00:47:55.342Z,8.60
2023-05-01T00:50:23.007Z,8.60
2023-05-01T00:52:50.187Z,8.60
2023-05-01T00:55:17.252Z,8.70
2023-05-01T00:57:44.354Z,8.80
2023-05-01T01:00:12.885Z,8.80
2023-05-01T01:02:40.173Z,8.80
2023-05-01T01:05:07.490Z,8.80
2023-05-01T01:07:51.152Z,8.80
2023-05-01T01:10:58.505Z,8.90
2023-05-01T01:14:04.337Z,8.90
2023-05-01T01:16:58.001Z,9.00
2023-05-01T01:20:18.834Z,9.10
2023-05-01T01:23:07.019Z,9.10
2023-05-01T01:26:25.123Z,9.10
2023-05-01T01:29:23.223Z,9.10
2023-05-01T01:32:34.892Z,9.20
2023-05-01T01:35:19.894Z,9.20
2023-05-01T01:38:05.674Z,9.30
2023-05-01T01:40:39.399Z,9.30
2023-05-01T01:43:08.970Z,9.30
2023-05-01T01:45:47.189Z,9.40
2023-05-01T01:48:24.663Z,9.40
2023-05-01T01:50:55.341Z,9.40
2023-05-01T01:53:23.550Z,9.40
2023-05-01T01:55:52.405Z,9.40
2023-05-01T01:58:26.323Z,9.40
2023-05-01T02:00:55.908Z,9.50
2023-05-01T02:03:24.285Z,9.50
2023-05-01T02:05:57.740Z,9.50
2023-05-01T02:08:29.795Z,9.50
2023-05-01T02:11:02.043Z,9.50
2023-05-01T02:13:33.640Z,9.50
2023-05-01T02:19:23.148Z,9.50
2023-05-01T02:22:01.150Z,9.40
2023-05-01T02:25:20.318Z,9.40
2023-05-01T02:28:21.229Z,9.40
2023-05-01T02:30:57.493Z,9.40
2023-05-01T02:33:43.092Z,9.30
2023-05-01T02:36:13.739Z,9.30
2023-05-01T02:38:41.931Z,9.30
2023-05-01T02:42:27.878Z,9.20
2023-05-01T02:48:42.449Z,9.20
2023-05-01T02:51:24.101Z,9.10
2023-05-01T02:54:05.225Z,9.00
2023-05-01T02:56:39.096Z,9.00
2023-05-01T02:59:06.360Z,8.90
2023-05-01T03:02:00.197Z,8.90
2023-05-01T03:04:39.786Z,8.90
2023-05-01T03:07:16.452Z,8.90
2023-05-01T03:13:47.652Z,8.90
2023-05-01T03:16:50.237Z,8.90
2023-05-01T03:19:17.580Z,8.90
2023-05-01T03:22:33.662Z,8.90
2023-05-01T03:28:21.609Z,8.80
2023-05-01T03:30:48.707Z,8.80
2023-05-01T03:33:18.976Z,8.70
2023-05-01T03:36:11.520Z,8.80
2023-05-01T03:39:09.454Z,8.80
2023-05-01T03:41:51.700Z,8.80
2023-05-01T03:44:59.677Z,8.80
2023-05-01T03:47:36.917Z,8.80
2023-05-01T03:50:04.858Z,8.90
2023-05-01T03:53:25.949Z,8.90
2023-05-01T03:56:06.379Z,8.90
2023-05-01T03:58:33.399Z,8.90
2023-05-01T04:01:09.242Z,8.90
2023-05-01T04:03:36.384Z,9.00
2023-05-01T04:06:19.469Z,9.00
2023-05-01T04:08:52.783Z,9.00
2023-05-01T04:11:22.800Z,9.00
2023-05-01T04:13:57.179Z,9.00
2023-05-01T04:16:52.432Z,9.00
2023-05-01T04:19:22.861Z,9.00
2023-05-01T04:22:02.595Z,8.90
2023-05-01T04:24:37.184Z,8.90
2023-05-01T04:27:38.286Z,8.90
2023-05-01T04:30:18.979Z,8.90
2023-05-01T04:32:52.106Z,8.90
2023-05-01T04:35:22.220Z,8.90
2023-05-01T04:37:59.577Z,8.90
2023-05-01T04:40:26.572Z,8.90
2023-05-01T04:42:53.475Z,8.90
2023-05-01T04:45:35.823Z,9.00
2023-05-01T04:48:21.548Z,9.10
2023-05-01T04:53:52.161Z,9.20
2023-05-01T04:57:23.417Z,9.20
2023-05-01T04:59:57.929Z,9.30
2023-05-01T05:05:34.549Z,9.40
2023-05-01T05:08:35.543Z,9.50
2023-05-01T05:11:14.696Z,9.60
2023-05-01T05:13:47.926Z,9.60
2023-05-01T05:16:24.233Z,9.70
2023-05-01T05:19:25.331Z,9.70
2023-05-01T05:21:52.844Z,9.70
2023-05-01T05:24:26.212Z,9.80
2023-05-01T05:27:28.132Z,9.80
2023-05-01T05:30:20.137Z,9.80
2023-05-01T05:32:56.596Z,10.00
2023-05-01T05:38:07.720Z,10.00
2023-05-01T05:40:37.735Z,10.00
2023-05-01T05:43:08.719Z,10.10
2023-05-01T05:45:35.854Z,10.00
2023-05-01T05:48:31.346Z,10.10
2023-05-01T05:51:46.269Z,10.00
2023-05-01T05:57:13.340Z,10.20
2023-05-01T05:59:58.841Z,10.30
2023-05-01T06:02:38.315Z,10.30
2023-05-01T06:11:18.141Z,10.50
2023-05-01T06:14:33.702Z,10.60
2023-05-01T06:17:57.667Z,10.80
2023-05-01T06:20:43.155Z,10.80
2023-05-01T06:24:05.513Z,10.90
2023-05-01T06:26:38.550Z,11.20
2023-05-01T06:29:14.515Z,11.30
2023-05-01T06:31:53.226Z,11.50
2023-05-01T06:34:23.130Z,11.60
2023-05-01T06:36:56.633Z,11.70
2023-05-01T06:39:24.312Z,11.70
2023-05-01T06:42:21.910Z,11.70
2023-05-01T06:45:19.548Z,11.80
2023-05-01T06:48:26.746Z,11.90
2023-05-01T06:53:51.777Z,12.00
2023-05-01T06:56:22.428Z,11.90
2023-05-01T06:59:10.235Z,12.00
2023-05-01T07:04:26.884Z,12.00
2023-05-01T07:06:59.512Z,12.00
2023-05-01T07:12:56.902Z,12.00
2023-05-01T07:19:23.374Z,12.20
2023-05-01T07:21:53.545Z,12.40
2023-05-01T07:46:31.792Z,13.90
2023-05-01T07:49:20.739Z,13.90
2023-05-01T07:52:02.570Z,14.10
2023-05-01T07:55:30.186Z,14.30
2023-05-01T08:01:01.035Z,14.60
2023-05-01T08:03:38.263Z,14.80
2023-05-01T08:06:14.734Z,15.00
2023-05-01T08:08:41.727Z,15.10
2023-05-01T08:11:18.028Z,15.20
2023-05-01T08:13:45.224Z,15.40
2023-05-01T08:16:57.216Z,15.50
2023-05-01T08:19:30.593Z,15.50
2023-05-01T08:22:16.130Z,15.60
2023-05-01T08:37:45.307Z,16.90
2023-05-01T08:40:12.762Z,17.70
2023-05-01T08:42:39.658Z,18.40
2023-05-01T08:45:10.938Z,18.70
2023-05-01T08:47:40.630Z,18.80
2023-05-01T08:50:12.089Z,19.60
2023-05-01T08:52:44.644Z,19.70
2023-05-01T08:55:15.063Z,19.30
2023-05-01T08:57:52.485Z,18.60
2023-05-01T09:00:21.736Z,18.10
2023-05-01T09:02:53.456Z,17.50
2023-05-01T09:05:21.233Z,17.50
2023-05-01T09:07:48.644Z,17.60
2023-05-01T09:10:19.228Z,17.60
2023-05-01T09:12:54.795Z,17.90
2023-05-01T09:15:26.864Z,18.30
2023-05-01T09:17:55.435Z,18.50
2023-05-01T09:20:23.414Z,17.90
2023-05-01T09:22:50.855Z,17.90
2023-05-01T09:25:19.302Z,18.00
2023-05-01T09:27:46.610Z,17.50
2023-05-01T09:30:34.002Z,17.50
2023-05-01T09:33:22.650Z,17.30
2023-05-01T09:35:51.627Z,17.10
2023-05-01T09:38:24.377Z,16.80
2023-05-01T09:40:54.326Z,16.90
2023-05-01T09:43:29.994Z,16.90
2023-05-01T09:46:13.277Z,16.80
2023-05-01T09:48:40.495Z,16.40
2023-05-01T09:51:28.467Z,16.50
2023-05-01T09:54:03.981Z,16.90
2023-05-01T09:56:49.556Z,17.00
2023-05-01T09:59:21.471Z,17.10
2023-05-01T10:01:50.506Z,16.80
2023-05-01T10:04:18.190Z,16.90
2023-05-01T10:06:45.238Z,16.80
2023-05-01T10:09:17.790Z,17.00
2023-05-01T10:11:55.583Z,16.90
2023-05-01T10:14:24.386Z,17.00
2023-05-01T10:16:57.077Z,17.10
2023-05-01T10:19:24.433Z,17.30
2023-05-01T10:21:51.893Z,17.20
2023-05-01T10:24:18.917Z,17.10
2023-05-01T10:26:49.547Z,17.00
2023-05-01T10:29:17.433Z,16.70
2023-05-01T10:31:44.690Z,16.60
2023-05-01T10:36:53.594Z,16.40
2023-05-01T10:39:34.936Z,16.40
2023-05-01T10:42:06.741Z,16.40
2023-05-01T10:44:35.038Z,16.70
2023-05-01T10:47:45.187Z,17.10
2023-05-01T10:50:15.708Z,17.50
2023-05-01T10:53:14.919Z,16.90
2023-05-01T10:55:45.123Z,17.00
2023-05-01T10:58:14.251Z,17.10
2023-05-01T11:00:42.252Z,16.80
2023-05-01T11:03:21.627Z,16.80
2023-05-01T11:06:01.222Z,17.40
2023-05-01T11:08:39.559Z,17.50
2023-05-01T11:11:21.986Z,17.70
2023-05-01T11:14:00.974Z,18.00
2023-05-01T11:16:42.102Z,17.80
2023-05-01T11:19:45.412Z,18.10
2023-05-01T11:22:15.625Z,18.60
2023-05-01T11:24:42.773Z,19.20
2023-05-01T11:27:14.258Z,18.80
2023-05-01T11:29:45.097Z,18.50
2023-05-01T11:32:21.116Z,18.70
2023-05-01T11:34:51.213Z,19.30
2023-05-01T11:37:19.291Z,20.00
2023-05-01T11:39:53.840Z,19.80
2023-05-01T11:42:22.689Z,20.30
2023-05-01T11:45:11.237Z,19.90
2023-05-01T11:47:39.361Z,19.10
2023-05-01T11:50:08.938Z,19.50
2023-05-01T11:52:53.523Z,19.80
2023-05-01T11:55:21.924Z,19.60
2023-05-01T11:57:50.690Z,19.80
2023-05-01T12:00:31.387Z,20.00
2023-05-01T12:03:07.562Z,20.70
2023-05-01T12:05:40.897Z,21.30
2023-05-01T12:08:21.506Z,20.00
2023-05-01T12:10:53.927Z,20.00
2023-05-01T12:13:21.232Z,20.50
2023-05-01T12:15:53.769Z,20.90
2023-05-01T12:18:24.415Z,21.40
2023-05-01T12:20:54.369Z,21.80
2023-05-01T12:23:37.577Z,21.90
2023-05-01T12:26:20.288Z,21.90
2023-05-01T12:29:07.900Z,22.40
2023-05-01T12:31:36.724Z,22.70
2023-05-01T12:34:07.854Z,22.30
2023-05-01T12:36:36.606Z,22.60
2023-05-01T12:39:13.166Z,22.60
2023-05-01T12:41:48.316Z,22.90
2023-05-01T12:44:30.853Z,22.10
2023-05-01T12:47:02.527Z,21.60
2023-05-01T12:49:32.171Z,21.10
2023-05-01T12:52:05.358Z,21.10
2023-05-01T12:54:34.441Z,22.10
2023-05-01T12:57:15.172Z,22.50
2023-05-01T12:59:46.484Z,22.30
2023-05-01T13:02:18.267Z,21.80
2023-05-01T13:04:49.709Z,21.50
2023-05-01T13:07:19.378Z,21.20
2023-05-01T13:09:59.353Z,20.90
2023-05-01T13:12:28.204Z,19.80
2023-05-01T13:14:55.912Z,19.40
2023-05-01T13:17:33.166Z,18.80
2023-05-01T13:20:05.240Z,18.80
2023-05-01T13:22:34.293Z,18.50
2023-05-01T13:25:05.126Z,18.10
2023-05-01T13:27:32.934Z,18.10
2023-05-01T13:30:01.272Z,18.10
2023-05-01T13:32:28.833Z,18.40
2023-05-01T13:35:01.436Z,18.50
2023-05-01T13:37:29.466Z,18.70
2023-05-01T13:40:01.149Z,18.80
2023-05-01T13:42:29.015Z,18.90
2023-05-01T13:44:58.586Z,18.70
2023-05-01T13:47:27.604Z,18.00
2023-05-01T13:49:55.062Z,18.00
2023-05-01T13:52:22.111Z,18.10
2023-05-01T13:54:49.846Z,18.20
2023-05-01T13:57:17.420Z,18.40
2023-05-01T13:59:47.018Z,18.60
2023-05-01T14:02:28.236Z,18.50
2023-05-01T14:04:57.635Z,18.50
2023-05-01T14:07:26.711Z,18.30
2023-05-01T14:09:56.640Z,18.40
2023-05-01T14:12:34.253Z,18.40
2023-05-01T14:15:03.676Z,18.40
2023-05-01T14:17:33.087Z,18.40
2023-05-01T14:20:00.833Z,18.50
2023-05-01T14:22:46.415Z,18.50
2023-05-01T14:25:37.694Z,18.50
2023-05-01T14:28:11.744Z,18.30
2023-05-01T14:30:40.870Z,17.40
2023-05-01T14:33:13.804Z,17.10
2023-05-01T14:35:53.283Z,17.00
2023-05-01T14:38:22.461Z,16.80
2023-05-01T14:40:49.470Z,16.80
2023-05-01T14:43:23.992Z,16.70
2023-05-01T14:45:51.425Z,16.70
2023-05-01T14:48:31.264Z,16.50
2023-05-01T14:51:00.242Z,16.40
2023-05-01T14:53:32.964Z,16.90
2023-05-01T14:55:59.974Z,17.60
2023-05-01T14:58:26.840Z,18.40
2023-05-01T15:03:23.492Z,20.70
2023-05-01T15:05:50.652Z,21.00
2023-05-01T15:08:21.334Z,21.00
2023-05-01T15:10:49.097Z,21.70
2023-05-01T15:13:16.011Z,21.30
2023-05-01T15:15:45.876Z,20.60
2023-05-01T15:18:13.028Z,20.80
2023-05-01T15:20:39.928Z,20.90
2023-05-01T15:23:07.080Z,21.90
2023-05-01T15:25:34.240Z,21.60
2023-05-01T15:28:08.783Z,20.70
2023-05-01T15:30:36.011Z,20.60
2023-05-01T15:33:04.172Z,19.90
2023-05-01T15:35:31.300Z,19.60
2023-05-01T15:37:59.437Z,19.00
2023-05-01T15:40:26.399Z,18.30
2023-05-01T15:42:53.669Z,17.60
2023-05-01T15:45:20.635Z,17.20
2023-05-01T15:47:51.194Z,16.50
2023-05-01T15:50:19.200Z,16.10
2023-05-01T15:52:46.132Z,16.00
2023-05-01T15:55:13.464Z,15.80
2023-05-01T15:57:40.600Z,15.60
2023-05-01T16:00:09.777Z,15.30
2023-05-01T16:02:36.783Z,15.00
2023-05-01T16:05:04.296Z,14.60
2023-05-01T16:07:31.945Z,14.50
2023-05-01T16:09:59.348Z,14.30
2023-05-01T16:12:29.708Z,14.10
2023-05-01T16:17:25.246Z,13.90
2023-05-01T16:19:53.008Z,13.80
2023-05-01T16:22:21.541Z,13.80
2023-05-01T16:24:49.075Z,13.90
2023-05-01T16:27:18.660Z,13.80
2023-05-01T16:29:46.380Z,13.90
2023-05-01T16:32:15.284Z,13.90
2023-05-01T16:34:43.500Z,13.90
2023-05-01T16:37:13.749Z,13.80
2023-05-01T16:39:40.900Z,13.60
2023-05-01T16:42:12.356Z,13.50
2023-05-01T16:44:42.502Z,13.40
2023-05-01T16:47:15.133Z,13.40
2023-05-01T16:49:42.501Z,13.40
2023-05-01T16:52:14.018Z,13.20
2023-05-01T16:54:42.766Z,13.20
2023-05-01T16:57:10.065Z,13.20
2023-05-01T16:59:37.992Z,13.20
2023-05-01T17:02:06.778Z,13.20
2023-05-01T17:04:34.395Z,13.20
2023-05-01T17:07:01.383Z,13.30
2023-05-01T17:09:28.358Z,13.40
2023-05-01T17:11:59.116Z,13.40
2023-05-01T17:16:58.875Z,13.90
2023-05-01T17:19:26.501Z,14.00
2023-05-01T17:21:53.854Z,14.10
2023-05-01T17:24:21.122Z,14.20
2023-05-01T17:26:48.100Z,14.30
2023-05-01T17:29:15.366Z,14.40
2023-05-01T17:31:42.443Z,14.30
2023-05-01T17:34:09.682Z,14.20
2023-05-01T17:36:36.838Z,14.10
2023-05-01T17:39:04.372Z,13.80
2023-05-01T17:41:31.311Z,13.80
2023-05-01T17:43:58.586Z,13.60
2023-05-01T17:46:25.712Z,13.60
2023-05-01T17:48:53.912Z,13.50
2023-05-01T17:51:21.011Z,13.50
2023-05-01T17:53:48.202Z,13.50
2023-05-01T17:56:18.072Z,13.50
2023-05-01T17:58:44.994Z,13.50
2023-05-01T18:01:12.329Z,13.50
2023-05-01T18:03:39.479Z,13.30
2023-05-01T18:06:09.818Z,13.30
2023-05-01T18:08:37.030Z,13.30
2023-05-01T18:11:04.024Z,13.30
2023-05-01T18:13:33.469Z,13.30
2023-05-01T18:16:00.626Z,13.30
2023-05-01T18:18:27.869Z,13.30
2023-05-01T18:20:55.415Z,13.30
2023-05-01T18:23:22.729Z,13.40
2023-05-01T18:25:49.819Z,13.40
2023-05-01T18:28:18.432Z,13.30
2023-05-01T18:30:46.181Z,13.30
2023-05-01T18:33:13.382Z,13.20
2023-05-01T18:35:43.319Z,13.20
2023-05-01T18:38:11.908Z,13.30
2023-05-01T18:40:39.460Z,13.30
2023-05-01T18:43:06.982Z,13.30
2023-05-01T18:45:34.432Z,13.30
2023-05-01T18:48:02.216Z,13.30
2023-05-01T18:50:29.369Z,13.30
2023-05-01T18:52:56.622Z,13.20
2023-05-01T18:55:23.767Z,13.10
2023-05-01T18:57:51.209Z,13.00
2023-05-01T19:00:20.647Z,13.00
2023-05-01T19:02:52.095Z,13.10
2023-05-01T19:05:20.279Z,13.00
2023-05-01T19:07:47.357Z,13.00
2023-05-01T19:10:17.017Z,13.00
2023-05-01T19:12:43.914Z,13.00
2023-05-01T19:15:11.364Z,13.00
2023-05-01T19:17:40.012Z,12.90
2023-05-01T19:20:08.719Z,12.90
2023-05-01T19:22:35.990Z,12.80
2023-05-01T19:25:03.620Z,12.70
2023-05-01T19:27:31.306Z,12.60
2023-05-01T19:30:01.201Z,12.40
2023-05-01T19:32:28.860Z,12.40
2023-05-01T19:34:56.843Z,12.40
2023-05-01T19:37:24.090Z,12.30
2023-05-01T19:39:51.453Z,12.30
2023-05-01T19:42:18.659Z,12.30
2023-05-01T19:44:46.201Z,12.20
2023-05-01T19:47:14.597Z,12.30
2023-05-01T19:49:45.503Z,12.30
2023-05-01T19:52:13.132Z,12.30
2023-05-01T19:54:40.378Z,12.30
2023-05-01T19:57:07.342Z,12.20
2023-05-01T19:59:38.821Z,12.10
2023-05-01T20:02:06.465Z,12.00
2023-05-01T20:04:33.693Z,11.90
2023-05-01T20:07:03.068Z,11.70
2023-05-01T20:09:30.532Z,11.60
2023-05-01T20:11:57.507Z,11.50
2023-05-01T20:14:24.747Z,11.40
2023-05-01T20:16:53.176Z,11.40
2023-05-01T20:19:20.364Z,11.40
2023-05-01T20:21:49.811Z,11.40
2023-05-01T20:24:16.868Z,11.40
2023-05-01T20:26:44.180Z,11.30
2023-05-01T20:29:11.333Z,11.30
2023-05-01T20:31:38.542Z,11.20
2023-05-01T20:34:05.958Z,11.20
2023-05-01T20:36:32.987Z,11.10
2023-05-01T20:38:59.951Z,11.10
2023-05-01T20:41:29.649Z,11.00
2023-05-01T20:43:57.769Z,10.90
2023-05-01T20:46:24.927Z,10.80
2023-05-01T20:48:52.556Z,10.70
2023-05-01T20:51:19.872Z,10.60
2023-05-01T20:53:47.258Z,10.50
2023-05-01T20:56:14.372Z,10.40
2023-05-01T20:58:53.624Z,10.40
2023-05-01T21:01:22.525Z,10.50
2023-05-01T21:03:50.397Z,10.50
2023-05-01T21:06:17.499Z,10.50
2023-05-01T21:08:46.083Z,10.50
2023-05-01T21:11:13.395Z,10.60
2023-05-01T21:13:42.417Z,10.50
2023-05-01T21:16:14.884Z,10.30
2023-05-01T21:18:42.696Z,10.30
2023-05-01T21:21:10.982Z,10.20
2023-05-01T21:23:48.242Z,10.20
2023-05-01T21:26:17.426Z,10.20
2023-05-01T21:28:44.614Z,10.10
2023-05-01T21:31:13.803Z,10.10
2023-05-01T21:33:45.474Z,10.00
2023-05-01T21:36:16.483Z,10.00
2023-05-01T21:38:43.924Z,9.90
2023-05-01T21:41:15.755Z,9.90
2023-05-01T21:43:43.265Z,9.80
2023-05-01T21:46:19.445Z,9.80
2023-05-01T21:48:51.459Z,9.80
2023-05-01T21:53:46.433Z,9.70
2023-05-01T21:56:14.665Z,9.60
2023-05-01T21:58:41.917Z,9.60
2023-05-01T22:01:09.797Z,9.60
2023-05-01T22:03:41.581Z,9.60
2023-05-01T22:06:09.109Z,9.70
2023-05-01T22:08:37.908Z,9.70
2023-05-01T22:11:06.486Z,9.50
2023-05-01T22:13:34.832Z,9.40
2023-05-01T22:16:02.435Z,9.20
2023-05-01T22:18:29.923Z,9.20
2023-05-01T22:20:57.275Z,9.10
2023-05-01T22:23:24.340Z,9.10
2023-05-01T22:25:51.633Z,9.10
2023-05-01T22:28:20.910Z,9.00
2023-05-01T22:30:48.127Z,8.90
2023-05-01T22:33:15.115Z,8.90
2023-05-01T22:35:42.068Z,8.80
2023-05-01T22:38:09.486Z,8.80
2023-05-01T22:40:36.831Z,8.80
2023-05-01T22:43:05.886Z,8.80
2023-05-01T22:45:32.974Z,8.80
2023-05-01T22:48:00.024Z,8.70
2023-05-01T22:50:27.546Z,8.70
2023-05-01T22:52:58.142Z,8.70
2023-05-01T22:55:25.308Z,8.60
2023-05-01T22:57:52.284Z,8.50
2023-05-01T23:00:19.794Z,8.50
2023-05-01T23:02:46.968Z,8.40
2023-05-01T23:05:15.671Z,8.40
2023-05-01T23:07:46.632Z,8.30
2023-05-01T23:10:15.526Z,8.30
2023-05-01T23:12:44.646Z,8.30
2023-05-01T23:15:16.728Z,8.20
2023-05-01T23:17:45.038Z,8.20
2023-05-01T23:20:42.798Z,8.20
2023-05-01T23:23:15.857Z,8.30
2023-05-01T23:25:49.445Z,8.20
2023-05-01T23:28:27.418Z,8.40
2023-05-01T23:31:01.202Z,8.30
2023-05-01T23:33:38.257Z,8.20
2023-05-01T23:36:12.826Z,8.20
2023-05-01T23:38:40.926Z,8.10
2023-05-01T23:41:08.651Z,8.00
2023-05-01T23:43:36.540Z,8.00
2023-05-01T23:46:05.348Z,8.00
2023-05-01T23:48:34.081Z,7.90
2023-05-01T23:51:02.345Z,7.90
2023-05-01T23:53:29.741Z,8.20
2023-05-01T23:55:56.889Z,8.50
2023-05-01T23:58:24.858Z,8.70
